sensor_id;sensor_type;location;lat;lon;timestamp;temperature;humidity
12959;DHT22;6544;51.666;6.634;2022-12-07T00:00:51;5.30;99.90
12959;DHT22;6544;51.666;6.634;2022-12-07T00:03:18;5.40;99.90
12959;DHT22;6544;51.666;6.634;2022-12-07T00:05:45;5.30;99.90
12959;DHT22;6544;51.666;6.634;2022-12-07T00:08:12;5.30;99.90
12959;DHT22;6544;51.666;6.634;2022-12-07T00:10:46;5.40;99.90
12959;DHT22;6544;51.666;6.634;2022-12-07T00:13:13;5.40;99.90
12959;DHT22;6544;51.666;6.634;2022-12-07T00:15:40;5.30;99.90
12959;DHT22;6544;51.666;6.634;2022-12-07T00:18:07;5.20;99.90
12959;DHT22;6544;51.666;6.634;2022-12-07T00:20:34;5.40;99.90
12959;DHT22;6544;51.666;6.634;2022-12-07T00:23:01;5.30;99.90
12959;DHT22;6544;51.666;6.634;2022-12-07T00:25:27;5.20;99.90
12959;DHT22;6544;51.666;6.634;2022-12-07T00:27:56;5.20;99.90
12959;DHT22;6544;51.666;6.634;2022-12-07T00:30:23;5.30;99.90
12959;DHT22;6544;51.666;6.634;2022-12-07T00:32:50;5.20;99.90
12959;DHT22;6544;51.666;6.634;2022-12-07T00:35:17;5.40;99.90
12959;DHT22;6544;51.666;6.634;2022-12-07T00:37:43;5.40;99.90
12959;DHT22;6544;51.666;6.634;2022-12-07T00:40:11;5.30;99.90
12959;DHT22;6544;51.666;6.634;2022-12-07T00:42:38;5.40;99.90
12959;DHT22;6544;51.666;6.634;2022-12-07T00:45:08;5.50;99.90
12959;DHT22;6544;51.666;6.634;2022-12-07T00:47:35;5.40;99.90
12959;DHT22;6544;51.666;6.634;2022-12-07T00:50:02;5.50;99.90
12959;DHT22;6544;51.666;6.634;2022-12-07T00:52:29;5.50;99.90
12959;DHT22;6544;51.666;6.634;2022-12-07T00:54:56;5.30;44.00
12959;DHT22;6544;51.666;6.634;2022-12-07T00:57:23;5.40;54.10
12959;DHT22;6544;51.666;6.634;2022-12-07T00:59:50;5.60;51.40
12959;DHT22;6544;51.666;6.634;2022-12-07T01:02:22;5.60;31.40
12959;DHT22;6544;51.666;6.634;2022-12-07T01:04:48;5.50;1.00
12959;DHT22;6544;51.666;6.634;2022-12-07T01:07:16;5.60;1.00
12959;DHT22;6544;51.666;6.634;2022-12-07T01:09:43;5.70;1.00
12959;DHT22;6544;51.666;6.634;2022-12-07T01:12:09;5.70;1.00
12959;DHT22;6544;51.666;6.634;2022-12-07T01:14:36;5.60;1.00
12959;DHT22;6544;51.666;6.634;2022-12-07T01:17:03;5.60;1.00
12959;DHT22;6544;51.666;6.634;2022-12-07T01:19:31;5.60;1.00
12959;DHT22;6544;51.666;6.634;2022-12-07T01:21:58;5.70;1.00
12959;DHT22;6544;51.666;6.634;2022-12-07T01:24:25;5.60;1.00
12959;DHT22;6544;51.666;6.634;2022-12-07T01:26:52;5.40;1.00
12959;DHT22;6544;51.666;6.634;2022-12-07T01:29:19;5.30;1.00
12959;DHT22;6544;51.666;6.634;2022-12-07T01:31:48;5.40;1.00
12959;DHT22;6544;51.666;6.634;2022-12-07T01:34:16;5.50;1.00
12959;DHT22;6544;51.666;6.634;2022-12-07T01:36:44;5.40;1.00
12959;DHT22;6544;51.666;6.634;2022-12-07T01:39:11;5.50;1.00
12959;DHT22;6544;51.666;6.634;2022-12-07T01:41:39;5.50;1.00
12959;DHT22;6544;51.666;6.634;2022-12-07T01:44:17;5.50;1.00
12959;DHT22;6544;51.666;6.634;2022-12-07T01:46:46;5.50;1.00
12959;DHT22;6544;51.666;6.634;2022-12-07T01:49:21;5.40;1.00
12959;DHT22;6544;51.666;6.634;2022-12-07T01:51:54;5.40;1.00
12959;DHT22;6544;51.666;6.634;2022-12-07T01:54:24;5.30;1.00
12959;DHT22;6544;51.666;6.634;2022-12-07T01:56:53;5.30;1.00
12959;DHT22;6544;51.666;6.634;2022-12-07T01:59:23;5.20;1.00
12959;DHT22;6544;51.666;6.634;2022-12-07T02:01:51;5.30;1.00
12959;DHT22;6544;51.666;6.634;2022-12-07T02:04:19;5.40;1.00
12959;DHT22;6544;51.666;6.634;2022-12-07T02:06:47;5.50;1.00
12959;DHT22;6544;51.666;6.634;2022-12-07T02:09:15;5.50;1.00
12959;DHT22;6544;51.666;6.634;2022-12-07T02:11:42;5.40;1.00
12959;DHT22;6544;51.666;6.634;2022-12-07T02:14:09;5.50;1.00
12959;DHT22;6544;51.666;6.634;2022-12-07T02:16:46;5.40;99.90
12959;DHT22;6544;51.666;6.634;2022-12-07T02:19:48;5.30;99.90
12959;DHT22;6544;51.666;6.634;2022-12-07T02:22:48;5.30;99.90
12959;DHT22;6544;51.666;6.634;2022-12-07T02:25:26;5.30;99.90
12959;DHT22;6544;51.666;6.634;2022-12-07T02:28:00;5.30;99.90
12959;DHT22;6544;51.666;6.634;2022-12-07T02:30:40;5.30;99.90
12959;DHT22;6544;51.666;6.634;2022-12-07T02:33:14;5.40;1.00
12959;DHT22;6544;51.666;6.634;2022-12-07T02:35:46;5.40;1.00
12959;DHT22;6544;51.666;6.634;2022-12-07T02:38:18;5.20;99.90
12959;DHT22;6544;51.666;6.634;2022-12-07T02:40:49;5.20;1.00
12959;DHT22;6544;51.666;6.634;2022-12-07T02:43:21;5.30;1.00
12959;DHT22;6544;51.666;6.634;2022-12-07T02:45:52;5.20;1.00
12959;DHT22;6544;51.666;6.634;2022-12-07T02:48:21;5.20;1.00
12959;DHT22;6544;51.666;6.634;2022-12-07T02:50:49;4.70;1.00
12959;DHT22;6544;51.666;6.634;2022-12-07T02:53:32;4.70;99.90
12959;DHT22;6544;51.666;6.634;2022-12-07T02:56:03;4.80;1.00
12959;DHT22;6544;51.666;6.634;2022-12-07T02:58:41;4.90;1.00
12959;DHT22;6544;51.666;6.634;2022-12-07T03:01:22;4.90;99.90
12959;DHT22;6544;51.666;6.634;2022-12-07T03:04:02;5.00;99.90
12959;DHT22;6544;51.666;6.634;2022-12-07T03:06:38;5.00;99.90
12959;DHT22;6544;51.666;6.634;2022-12-07T03:09:13;5.00;1.00
12959;DHT22;6544;51.666;6.634;2022-12-07T03:11:46;5.10;1.00
12959;DHT22;6544;51.666;6.634;2022-12-07T03:14:18;5.10;63.80
12959;DHT22;6544;51.666;6.634;2022-12-07T03:16:52;4.90;99.90
12959;DHT22;6544;51.666;6.634;2022-12-07T03:19:21;4.70;22.40
12959;DHT22;6544;51.666;6.634;2022-12-07T03:21:52;4.70;99.90
12959;DHT22;6544;51.666;6.634;2022-12-07T03:24:26;4.70;99.90
12959;DHT22;6544;51.666;6.634;2022-12-07T03:26:59;4.90;99.90
12959;DHT22;6544;51.666;6.634;2022-12-07T03:29:31;5.00;99.90
12959;DHT22;6544;51.666;6.634;2022-12-07T03:32:05;5.00;1.00
12959;DHT22;6544;51.666;6.634;2022-12-07T03:34:35;5.10;1.00
12959;DHT22;6544;51.666;6.634;2022-12-07T03:37:05;5.10;99.90
12959;DHT22;6544;51.666;6.634;2022-12-07T03:39:38;4.90;1.00
12959;DHT22;6544;51.666;6.634;2022-12-07T03:42:07;4.70;1.00
12959;DHT22;6544;51.666;6.634;2022-12-07T03:44:35;4.70;99.90
12959;DHT22;6544;51.666;6.634;2022-12-07T03:47:09;4.50;1.00
12959;DHT22;6544;51.666;6.634;2022-12-07T03:49:43;4.70;1.00
12959;DHT22;6544;51.666;6.634;2022-12-07T03:52:18;4.70;1.00
12959;DHT22;6544;51.666;6.634;2022-12-07T03:54:54;4.80;1.00
12959;DHT22;6544;51.666;6.634;2022-12-07T03:57:24;4.90;1.00
12959;DHT22;6544;51.666;6.634;2022-12-07T03:59:53;4.90;99.90
12959;DHT22;6544;51.666;6.634;2022-12-07T04:02:23;4.70;99.90
12959;DHT22;6544;51.666;6.634;2022-12-07T04:04:51;4.60;99.90
12959;DHT22;6544;51.666;6.634;2022-12-07T04:07:18;4.50;1.00
12959;DHT22;6544;51.666;6.634;2022-12-07T04:09:46;4.40;1.00
12959;DHT22;6544;51.666;6.634;2022-12-07T04:12:13;4.60;1.00
12959;DHT22;6544;51.666;6.634;2022-12-07T04:14:39;4.60;1.00
12959;DHT22;6544;51.666;6.634;2022-12-07T04:17:06;4.60;1.00
12959;DHT22;6544;51.666;6.634;2022-12-07T04:19:35;4.70;1.00
12959;DHT22;6544;51.666;6.634;2022-12-07T04:22:03;4.70;1.00
12959;DHT22;6544;51.666;6.634;2022-12-07T04:24:30;4.80;1.00
12959;DHT22;6544;51.666;6.634;2022-12-07T04:26:57;4.80;1.00
12959;DHT22;6544;51.666;6.634;2022-12-07T04:29:24;4.90;99.90
12959;DHT22;6544;51.666;6.634;2022-12-07T04:31:52;4.90;99.90
12959;DHT22;6544;51.666;6.634;2022-12-07T04:34:20;4.90;99.90
12959;DHT22;6544;51.666;6.634;2022-12-07T04:36:49;4.80;1.00
12959;DHT22;6544;51.666;6.634;2022-12-07T04:39:19;4.80;99.90
12959;DHT22;6544;51.666;6.634;2022-12-07T04:41:47;4.90;99.90
12959;DHT22;6544;51.666;6.634;2022-12-07T04:44:14;5.00;99.90
12959;DHT22;6544;51.666;6.634;2022-12-07T04:46:42;4.90;1.00
12959;DHT22;6544;51.666;6.634;2022-12-07T04:49:09;4.80;1.00
12959;DHT22;6544;51.666;6.634;2022-12-07T04:51:37;4.70;99.90
12959;DHT22;6544;51.666;6.634;2022-12-07T04:54:05;4.80;66.10
12959;DHT22;6544;51.666;6.634;2022-12-07T04:56:32;4.70;99.90
12959;DHT22;6544;51.666;6.634;2022-12-07T04:59:01;4.80;99.90
12959;DHT22;6544;51.666;6.634;2022-12-07T05:01:28;4.80;1.00
12959;DHT22;6544;51.666;6.634;2022-12-07T05:03:55;4.50;99.90
12959;DHT22;6544;51.666;6.634;2022-12-07T05:06:22;4.30;99.90
12959;DHT22;6544;51.666;6.634;2022-12-07T05:08:49;4.10;1.00
12959;DHT22;6544;51.666;6.634;2022-12-07T05:11:17;4.10;1.00
12959;DHT22;6544;51.666;6.634;2022-12-07T05:13:58;4.20;1.00
12959;DHT22;6544;51.666;6.634;2022-12-07T05:16:26;4.10;1.00
12959;DHT22;6544;51.666;6.634;2022-12-07T05:18:53;4.20;1.00
12959;DHT22;6544;51.666;6.634;2022-12-07T05:21:20;4.40;1.00
12959;DHT22;6544;51.666;6.634;2022-12-07T05:23:46;4.40;1.00
12959;DHT22;6544;51.666;6.634;2022-12-07T05:26:14;4.50;1.00
12959;DHT22;6544;51.666;6.634;2022-12-07T05:28:42;4.60;1.00
12959;DHT22;6544;51.666;6.634;2022-12-07T05:31:09;4.70;1.00
12959;DHT22;6544;51.666;6.634;2022-12-07T05:33:36;4.80;1.00
12959;DHT22;6544;51.666;6.634;2022-12-07T05:36:03;4.80;1.00
12959;DHT22;6544;51.666;6.634;2022-12-07T05:38:31;4.80;1.00
12959;DHT22;6544;51.666;6.634;2022-12-07T05:41:00;4.80;1.00
12959;DHT22;6544;51.666;6.634;2022-12-07T05:43:28;4.80;99.90
12959;DHT22;6544;51.666;6.634;2022-12-07T05:45:56;4.80;99.90
12959;DHT22;6544;51.666;6.634;2022-12-07T05:48:23;4.80;99.90
12959;DHT22;6544;51.666;6.634;2022-12-07T05:50:51;4.80;99.90
12959;DHT22;6544;51.666;6.634;2022-12-07T05:53:18;4.90;99.90
12959;DHT22;6544;51.666;6.634;2022-12-07T05:55:45;4.90;90.80
12959;DHT22;6544;51.666;6.634;2022-12-07T05:58:12;4.70;46.20
12959;DHT22;6544;51.666;6.634;2022-12-07T06:00:58;4.40;1.00
12959;DHT22;6544;51.666;6.634;2022-12-07T06:03:24;4.10;1.00
12959;DHT22;6544;51.666;6.634;2022-12-07T06:05:52;4.00;1.00
12959;DHT22;6544;51.666;6.634;2022-12-07T06:08:18;4.00;1.00
12959;DHT22;6544;51.666;6.634;2022-12-07T06:10:47;4.20;34.50
12959;DHT22;6544;51.666;6.634;2022-12-07T06:13:36;4.30;30.30
12959;DHT22;6544;51.666;6.634;2022-12-07T06:16:04;4.40;1.00
12959;DHT22;6544;51.666;6.634;2022-12-07T06:18:30;4.50;1.00
12959;DHT22;6544;51.666;6.634;2022-12-07T06:20:57;4.60;1.00
12959;DHT22;6544;51.666;6.634;2022-12-07T06:23:24;4.60;1.00
12959;DHT22;6544;51.666;6.634;2022-12-07T06:25:51;4.60;1.00
12959;DHT22;6544;51.666;6.634;2022-12-07T06:28:18;4.70;1.00
12959;DHT22;6544;51.666;6.634;2022-12-07T06:30:45;4.70;1.00
12959;DHT22;6544;51.666;6.634;2022-12-07T06:33:13;4.70;1.00
12959;DHT22;6544;51.666;6.634;2022-12-07T06:35:40;4.60;99.90
12959;DHT22;6544;51.666;6.634;2022-12-07T06:38:07;4.70;99.90
12959;DHT22;6544;51.666;6.634;2022-12-07T06:40:34;4.80;99.90
12959;DHT22;6544;51.666;6.634;2022-12-07T06:43:01;4.80;1.00
12959;DHT22;6544;51.666;6.634;2022-12-07T06:45:28;4.80;51.50
12959;DHT22;6544;51.666;6.634;2022-12-07T06:47:55;4.70;1.00
12959;DHT22;6544;51.666;6.634;2022-12-07T06:50:26;4.70;99.90
12959;DHT22;6544;51.666;6.634;2022-12-07T06:52:53;4.70;1.00
12959;DHT22;6544;51.666;6.634;2022-12-07T06:55:19;4.70;1.00
12959;DHT22;6544;51.666;6.634;2022-12-07T06:57:46;4.70;1.00
12959;DHT22;6544;51.666;6.634;2022-12-07T07:00:14;4.80;61.00
12959;DHT22;6544;51.666;6.634;2022-12-07T07:02:41;4.70;1.00
12959;DHT22;6544;51.666;6.634;2022-12-07T07:05:09;4.80;1.00
12959;DHT22;6544;51.666;6.634;2022-12-07T07:07:37;4.80;99.90
12959;DHT22;6544;51.666;6.634;2022-12-07T07:10:05;4.70;1.00
12959;DHT22;6544;51.666;6.634;2022-12-07T07:12:32;4.60;1.00
12959;DHT22;6544;51.666;6.634;2022-12-07T07:14:59;4.70;1.00
12959;DHT22;6544;51.666;6.634;2022-12-07T07:17:26;4.60;1.00
12959;DHT22;6544;51.666;6.634;2022-12-07T07:19:53;4.60;1.00
12959;DHT22;6544;51.666;6.634;2022-12-07T07:22:20;4.60;1.00
12959;DHT22;6544;51.666;6.634;2022-12-07T07:24:48;4.70;79.40
12959;DHT22;6544;51.666;6.634;2022-12-07T07:27:15;4.70;1.00
12959;DHT22;6544;51.666;6.634;2022-12-07T07:29:42;4.70;99.90
12959;DHT22;6544;51.666;6.634;2022-12-07T07:32:09;4.70;99.90
12959;DHT22;6544;51.666;6.634;2022-12-07T07:34:36;4.60;99.90
12959;DHT22;6544;51.666;6.634;2022-12-07T07:37:03;4.60;99.90
12959;DHT22;6544;51.666;6.634;2022-12-07T07:39:30;4.70;99.90
12959;DHT22;6544;51.666;6.634;2022-12-07T07:42:03;4.70;1.00
12959;DHT22;6544;51.666;6.634;2022-12-07T07:44:30;4.80;1.00
12959;DHT22;6544;51.666;6.634;2022-12-07T07:46:57;4.80;99.90
12959;DHT22;6544;51.666;6.634;2022-12-07T07:49:23;4.80;99.90
12959;DHT22;6544;51.666;6.634;2022-12-07T07:51:50;4.80;26.40
12959;DHT22;6544;51.666;6.634;2022-12-07T07:54:17;4.80;1.00
12959;DHT22;6544;51.666;6.634;2022-12-07T07:56:44;4.80;1.00
12959;DHT22;6544;51.666;6.634;2022-12-07T07:59:13;4.70;1.00
12959;DHT22;6544;51.666;6.634;2022-12-07T08:01:40;4.80;1.00
12959;DHT22;6544;51.666;6.634;2022-12-07T08:04:07;4.80;1.00
12959;DHT22;6544;51.666;6.634;2022-12-07T08:06:34;4.70;99.90
12959;DHT22;6544;51.666;6.634;2022-12-07T08:09:01;4.80;99.90
12959;DHT22;6544;51.666;6.634;2022-12-07T08:11:30;4.70;95.80
12959;DHT22;6544;51.666;6.634;2022-12-07T08:13:57;4.50;99.90
12959;DHT22;6544;51.666;6.634;2022-12-07T08:16:25;4.30;99.90
12959;DHT22;6544;51.666;6.634;2022-12-07T08:18:52;4.40;1.00
12959;DHT22;6544;51.666;6.634;2022-12-07T08:21:19;4.50;99.90
12959;DHT22;6544;51.666;6.634;2022-12-07T08:23:46;4.20;99.90
12959;DHT22;6544;51.666;6.634;2022-12-07T08:26:15;4.20;1.00
12959;DHT22;6544;51.666;6.634;2022-12-07T08:28:42;4.10;98.00
12959;DHT22;6544;51.666;6.634;2022-12-07T08:31:13;4.20;99.90
12959;DHT22;6544;51.666;6.634;2022-12-07T08:33:44;4.30;88.60
12959;DHT22;6544;51.666;6.634;2022-12-07T08:36:12;4.40;1.00
12959;DHT22;6544;51.666;6.634;2022-12-07T08:38:40;4.50;99.90
12959;DHT22;6544;51.666;6.634;2022-12-07T08:41:08;4.60;99.90
12959;DHT22;6544;51.666;6.634;2022-12-07T08:43:36;4.60;1.00
12959;DHT22;6544;51.666;6.634;2022-12-07T08:46:11;4.60;1.00
12959;DHT22;6544;51.666;6.634;2022-12-07T08:48:45;4.70;99.90
12959;DHT22;6544;51.666;6.634;2022-12-07T08:51:13;4.70;1.00
12959;DHT22;6544;51.666;6.634;2022-12-07T08:53:41;4.80;1.00
12959;DHT22;6544;51.666;6.634;2022-12-07T08:56:09;4.80;1.00
12959;DHT22;6544;51.666;6.634;2022-12-07T08:58:37;4.70;99.90
12959;DHT22;6544;51.666;6.634;2022-12-07T09:01:05;4.60;98.60
12959;DHT22;6544;51.666;6.634;2022-12-07T09:03:32;4.70;1.00
12959;DHT22;6544;51.666;6.634;2022-12-07T09:06:00;4.70;99.90
12959;DHT22;6544;51.666;6.634;2022-12-07T09:08:31;4.80;99.90
12959;DHT22;6544;51.666;6.634;2022-12-07T09:10:59;4.90;99.90
12959;DHT22;6544;51.666;6.634;2022-12-07T09:13:26;5.00;1.00
12959;DHT22;6544;51.666;6.634;2022-12-07T09:15:53;5.10;99.90
12959;DHT22;6544;51.666;6.634;2022-12-07T09:18:20;5.10;1.00
12959;DHT22;6544;51.666;6.634;2022-12-07T09:20:47;5.20;1.00
12959;DHT22;6544;51.666;6.634;2022-12-07T09:23:17;5.20;1.00
12959;DHT22;6544;51.666;6.634;2022-12-07T09:25:43;5.10;1.00
12959;DHT22;6544;51.666;6.634;2022-12-07T09:28:10;5.10;91.20
12959;DHT22;6544;51.666;6.634;2022-12-07T09:30:37;5.20;1.00
12959;DHT22;6544;51.666;6.634;2022-12-07T09:33:04;5.30;99.90
12959;DHT22;6544;51.666;6.634;2022-12-07T09:35:31;5.40;99.90
12959;DHT22;6544;51.666;6.634;2022-12-07T09:37:58;5.40;1.00
12959;DHT22;6544;51.666;6.634;2022-12-07T09:40:27;5.40;32.40
12959;DHT22;6544;51.666;6.634;2022-12-07T09:42:55;5.50;99.90
12959;DHT22;6544;51.666;6.634;2022-12-07T09:45:24;5.60;1.00
12959;DHT22;6544;51.666;6.634;2022-12-07T09:47:52;5.60;1.00
12959;DHT22;6544;51.666;6.634;2022-12-07T09:50:21;5.70;1.00
12959;DHT22;6544;51.666;6.634;2022-12-07T09:52:50;5.90;98.10
12959;DHT22;6544;51.666;6.634;2022-12-07T09:55:22;6.00;33.70
12959;DHT22;6544;51.666;6.634;2022-12-07T09:57:52;6.10;1.00
12959;DHT22;6544;51.666;6.634;2022-12-07T10:00:21;6.20;1.00
12959;DHT22;6544;51.666;6.634;2022-12-07T10:02:52;6.10;99.90
12959;DHT22;6544;51.666;6.634;2022-12-07T10:05:24;6.10;99.90
12959;DHT22;6544;51.666;6.634;2022-12-07T10:07:52;6.20;99.90
12959;DHT22;6544;51.666;6.634;2022-12-07T10:10:23;6.20;1.00
12959;DHT22;6544;51.666;6.634;2022-12-07T10:12:58;5.90;1.00
12959;DHT22;6544;51.666;6.634;2022-12-07T10:15:41;5.80;59.90
12959;DHT22;6544;51.666;6.634;2022-12-07T10:18:19;6.00;99.90
12959;DHT22;6544;51.666;6.634;2022-12-07T10:20:48;6.10;1.00
12959;DHT22;6544;51.666;6.634;2022-12-07T10:23:16;6.00;99.90
12959;DHT22;6544;51.666;6.634;2022-12-07T10:25:43;6.10;1.00
12959;DHT22;6544;51.666;6.634;2022-12-07T10:28:15;5.90;1.00
12959;DHT22;6544;51.666;6.634;2022-12-07T10:30:55;6.10;99.90
12959;DHT22;6544;51.666;6.634;2022-12-07T10:33:33;6.10;16.60
12959;DHT22;6544;51.666;6.634;2022-12-07T10:36:17;6.00;1.00
12959;DHT22;6544;51.666;6.634;2022-12-07T10:38:45;6.10;99.90
12959;DHT22;6544;51.666;6.634;2022-12-07T10:41:13;6.20;1.00
12959;DHT22;6544;51.666;6.634;2022-12-07T10:43:51;6.30;1.00
12959;DHT22;6544;51.666;6.634;2022-12-07T10:52:40;6.60;99.90
12959;DHT22;6544;51.666;6.634;2022-12-07T10:55:19;6.70;99.90
12959;DHT22;6544;51.666;6.634;2022-12-07T13:19:56;6.40;1.00
12959;DHT22;6544;51.666;6.634;2022-12-07T13:25:36;6.40;99.90
12959;DHT22;6544;51.666;6.634;2022-12-07T13:28:14;6.40;99.90
12959;DHT22;6544;51.666;6.634;2022-12-07T13:30:46;6.40;99.90
12959;DHT22;6544;51.666;6.634;2022-12-07T13:33:16;6.40;99.90
12959;DHT22;6544;51.666;6.634;2022-12-07T13:35:46;6.40;99.90
12959;DHT22;6544;51.666;6.634;2022-12-07T13:38:23;6.40;99.90
12959;DHT22;6544;51.666;6.634;2022-12-07T13:41:11;6.40;99.90
12959;DHT22;6544;51.666;6.634;2022-12-07T13:43:43;6.50;99.90
12959;DHT22;6544;51.666;6.634;2022-12-07T13:46:11;6.60;99.90
12959;DHT22;6544;51.666;6.634;2022-12-07T13:48:45;6.60;99.90
12959;DHT22;6544;51.666;6.634;2022-12-07T13:51:21;6.70;99.90
12959;DHT22;6544;51.666;6.634;2022-12-07T13:53:50;6.60;99.90
12959;DHT22;6544;51.666;6.634;2022-12-07T13:56:17;6.50;99.90
12959;DHT22;6544;51.666;6.634;2022-12-07T13:58:44;6.50;99.90
12959;DHT22;6544;51.666;6.634;2022-12-07T14:01:12;6.60;99.90
12959;DHT22;6544;51.666;6.634;2022-12-07T14:03:40;6.70;99.90
12959;DHT22;6544;51.666;6.634;2022-12-07T14:06:24;6.60;99.90
12959;DHT22;6544;51.666;6.634;2022-12-07T14:09:07;6.60;99.90
12959;DHT22;6544;51.666;6.634;2022-12-07T14:11:35;6.50;99.90
12959;DHT22;6544;51.666;6.634;2022-12-07T14:14:05;6.50;99.90
12959;DHT22;6544;51.666;6.634;2022-12-07T14:16:33;6.50;99.90
12959;DHT22;6544;51.666;6.634;2022-12-07T14:19:02;6.50;99.90
12959;DHT22;6544;51.666;6.634;2022-12-07T14:21:34;6.50;99.90
12959;DHT22;6544;51.666;6.634;2022-12-07T14:24:17;6.50;99.90
12959;DHT22;6544;51.666;6.634;2022-12-07T14:26:45;6.40;99.90
12959;DHT22;6544;51.666;6.634;2022-12-07T14:29:32;6.50;58.80
12959;DHT22;6544;51.666;6.634;2022-12-07T14:32:18;6.30;53.90
12959;DHT22;6544;51.666;6.634;2022-12-07T14:34:57;6.30;99.90
12959;DHT22;6544;51.666;6.634;2022-12-07T14:37:26;6.20;99.90
12959;DHT22;6544;51.666;6.634;2022-12-07T14:39:53;6.30;99.90
12959;DHT22;6544;51.666;6.634;2022-12-07T14:42:20;6.30;99.90
12959;DHT22;6544;51.666;6.634;2022-12-07T14:44:49;6.40;99.90
12959;DHT22;6544;51.666;6.634;2022-12-07T14:47:16;6.20;99.90
12959;DHT22;6544;51.666;6.634;2022-12-07T14:49:43;6.30;99.90
12959;DHT22;6544;51.666;6.634;2022-12-07T14:52:15;6.20;99.90
12959;DHT22;6544;51.666;6.634;2022-12-07T14:54:44;6.40;99.90
12959;DHT22;6544;51.666;6.634;2022-12-07T14:57:11;6.50;99.90
12959;DHT22;6544;51.666;6.634;2022-12-07T14:59:38;6.60;99.90
12959;DHT22;6544;51.666;6.634;2022-12-07T15:02:13;6.60;99.90
12959;DHT22;6544;51.666;6.634;2022-12-07T15:04:41;6.60;53.30
12959;DHT22;6544;51.666;6.634;2022-12-07T15:07:12;6.60;25.50
12959;DHT22;6544;51.666;6.634;2022-12-07T15:09:41;6.60;56.90
12959;DHT22;6544;51.666;6.634;2022-12-07T15:12:09;6.70;22.10
12959;DHT22;6544;51.666;6.634;2022-12-07T15:14:36;6.70;18.00
12959;DHT22;6544;51.666;6.634;2022-12-07T15:17:04;6.70;17.80
12959;DHT22;6544;51.666;6.634;2022-12-07T15:19:30;6.70;39.80
12959;DHT22;6544;51.666;6.634;2022-12-07T15:21:58;6.50;48.50
12959;DHT22;6544;51.666;6.634;2022-12-07T15:24:26;6.50;99.90
12959;DHT22;6544;51.666;6.634;2022-12-07T15:26:53;6.50;92.00
12959;DHT22;6544;51.666;6.634;2022-12-07T15:29:22;6.40;99.90
12959;DHT22;6544;51.666;6.634;2022-12-07T15:31:49;6.20;99.90
12959;DHT22;6544;51.666;6.634;2022-12-07T15:34:16;6.30;99.90
12959;DHT22;6544;51.666;6.634;2022-12-07T15:36:43;6.40;99.90
12959;DHT22;6544;51.666;6.634;2022-12-07T15:39:13;6.40;99.90
12959;DHT22;6544;51.666;6.634;2022-12-07T15:41:40;6.40;99.90
12959;DHT22;6544;51.666;6.634;2022-12-07T15:44:10;6.50;99.90
12959;DHT22;6544;51.666;6.634;2022-12-07T15:46:56;6.50;99.90
12959;DHT22;6544;51.666;6.634;2022-12-07T15:49:23;6.40;99.90
12959;DHT22;6544;51.666;6.634;2022-12-07T15:51:50;6.40;99.90
12959;DHT22;6544;51.666;6.634;2022-12-07T15:54:20;6.40;99.90
12959;DHT22;6544;51.666;6.634;2022-12-07T15:56:47;6.40;99.90
12959;DHT22;6544;51.666;6.634;2022-12-07T15:59:14;6.50;46.70
12959;DHT22;6544;51.666;6.634;2022-12-07T16:01:41;6.50;87.50
12959;DHT22;6544;51.666;6.634;2022-12-07T16:04:10;6.40;54.10
12959;DHT22;6544;51.666;6.634;2022-12-07T16:06:38;6.40;97.10
12959;DHT22;6544;51.666;6.634;2022-12-07T16:09:05;6.40;99.90
12959;DHT22;6544;51.666;6.634;2022-12-07T16:11:32;6.40;99.90
12959;DHT22;6544;51.666;6.634;2022-12-07T16:13:59;6.30;99.90
12959;DHT22;6544;51.666;6.634;2022-12-07T16:16:26;6.40;99.90
12959;DHT22;6544;51.666;6.634;2022-12-07T16:18:53;6.10;99.90
12959;DHT22;6544;51.666;6.634;2022-12-07T16:21:22;5.90;99.90
12959;DHT22;6544;51.666;6.634;2022-12-07T16:23:49;5.70;1.00
12959;DHT22;6544;51.666;6.634;2022-12-07T16:26:17;5.50;99.90
12959;DHT22;6544;51.666;6.634;2022-12-07T16:28:48;5.50;99.90
12959;DHT22;6544;51.666;6.634;2022-12-07T16:31:17;5.40;1.00
12959;DHT22;6544;51.666;6.634;2022-12-07T16:33:45;5.40;1.00
12959;DHT22;6544;51.666;6.634;2022-12-07T16:36:13;5.40;60.40
12959;DHT22;6544;51.666;6.634;2022-12-07T16:38:43;5.50;99.90
12959;DHT22;6544;51.666;6.634;2022-12-07T16:41:10;5.60;99.90
12959;DHT22;6544;51.666;6.634;2022-12-07T16:43:38;5.80;99.90
12959;DHT22;6544;51.666;6.634;2022-12-07T16:46:05;5.90;1.00
12959;DHT22;6544;51.666;6.634;2022-12-07T16:48:36;6.00;56.90
12959;DHT22;6544;51.666;6.634;2022-12-07T16:51:05;6.00;1.00
12959;DHT22;6544;51.666;6.634;2022-12-07T16:53:34;6.00;1.00
12959;DHT22;6544;51.666;6.634;2022-12-07T16:56:03;6.10;99.90
12959;DHT22;6544;51.666;6.634;2022-12-07T16:58:31;6.10;75.90
12959;DHT22;6544;51.666;6.634;2022-12-07T17:00:58;6.20;99.90
12959;DHT22;6544;51.666;6.634;2022-12-07T17:03:25;6.20;10.70
12959;DHT22;6544;51.666;6.634;2022-12-07T17:05:52;6.20;1.00
12959;DHT22;6544;51.666;6.634;2022-12-07T17:08:19;6.10;1.00
12959;DHT22;6544;51.666;6.634;2022-12-07T17:10:46;6.20;1.00
12959;DHT22;6544;51.666;6.634;2022-12-07T17:13:14;6.10;99.90
12959;DHT22;6544;51.666;6.634;2022-12-07T17:16:00;6.10;99.90
12959;DHT22;6544;51.666;6.634;2022-12-07T17:18:28;5.80;99.90
12959;DHT22;6544;51.666;6.634;2022-12-07T17:20:55;5.90;1.00
12959;DHT22;6544;51.666;6.634;2022-12-07T17:23:22;5.90;1.00
12959;DHT22;6544;51.666;6.634;2022-12-07T17:25:51;6.00;1.00
12959;DHT22;6544;51.666;6.634;2022-12-07T17:28:19;6.00;99.90
12959;DHT22;6544;51.666;6.634;2022-12-07T17:30:49;5.90;99.90
12959;DHT22;6544;51.666;6.634;2022-12-07T17:33:16;6.00;99.90
12959;DHT22;6544;51.666;6.634;2022-12-07T17:35:45;5.80;99.90
12959;DHT22;6544;51.666;6.634;2022-12-07T17:38:13;5.90;99.90
12959;DHT22;6544;51.666;6.634;2022-12-07T17:40:40;5.90;99.90
12959;DHT22;6544;51.666;6.634;2022-12-07T17:43:08;5.90;99.90
12959;DHT22;6544;51.666;6.634;2022-12-07T17:45:37;5.80;99.90
12959;DHT22;6544;51.666;6.634;2022-12-07T17:48:04;5.80;99.90
12959;DHT22;6544;51.666;6.634;2022-12-07T17:50:31;5.70;99.90
12959;DHT22;6544;51.666;6.634;2022-12-07T17:53:15;5.70;99.90
12959;DHT22;6544;51.666;6.634;2022-12-07T17:55:42;5.60;99.90
12959;DHT22;6544;51.666;6.634;2022-12-07T17:58:09;5.70;99.90
12959;DHT22;6544;51.666;6.634;2022-12-07T18:00:37;5.70;99.90
12959;DHT22;6544;51.666;6.634;2022-12-07T18:03:06;5.90;99.90
12959;DHT22;6544;51.666;6.634;2022-12-07T18:05:36;5.90;37.20
12959;DHT22;6544;51.666;6.634;2022-12-07T18:08:03;5.90;3.80
12959;DHT22;6544;51.666;6.634;2022-12-07T18:10:31;5.60;67.50
12959;DHT22;6544;51.666;6.634;2022-12-07T18:12:59;5.60;99.90
12959;DHT22;6544;51.666;6.634;2022-12-07T18:15:44;5.60;99.90
12959;DHT22;6544;51.666;6.634;2022-12-07T18:18:11;5.70;99.90
12959;DHT22;6544;51.666;6.634;2022-12-07T18:20:38;5.70;99.90
12959;DHT22;6544;51.666;6.634;2022-12-07T18:23:05;5.80;99.90
12959;DHT22;6544;51.666;6.634;2022-12-07T18:25:32;5.70;99.90
12959;DHT22;6544;51.666;6.634;2022-12-07T18:27:59;5.70;99.90
12959;DHT22;6544;51.666;6.634;2022-12-07T18:30:26;5.50;1.00
12959;DHT22;6544;51.666;6.634;2022-12-07T18:32:54;5.40;99.90
12959;DHT22;6544;51.666;6.634;2022-12-07T18:35:22;5.40;1.00
12959;DHT22;6544;51.666;6.634;2022-12-07T18:37:48;5.30;1.00
12959;DHT22;6544;51.666;6.634;2022-12-07T18:40:15;5.30;1.00
12959;DHT22;6544;51.666;6.634;2022-12-07T18:42:42;5.20;1.00
12959;DHT22;6544;51.666;6.634;2022-12-07T18:45:10;5.20;99.90
12959;DHT22;6544;51.666;6.634;2022-12-07T18:47:37;5.20;1.00
12959;DHT22;6544;51.666;6.634;2022-12-07T18:50:06;5.30;1.00
12959;DHT22;6544;51.666;6.634;2022-12-07T18:52:34;5.20;18.30